PWSweather.com
Personal Weather Stations
Station Observations
PITCARMI1
La Serra, CarmignanoIT 59015

La SerraCarmignanoIT 59015

Lat: 43.804429, Lon: 11.027222

Elevation: 525

Station Type: Davis Vantage Vue

http://www.meteocarmignano.it

Latest ConditionsUpdated 2:00:02 PM GMT+01:01 Tuesday, May 26, 2015
Currently Today's Max Today's Min Today's Average
Temperature 58.8°F14.9°C 72.2°F22.3°C 55.7°F13.2°C 61.8°F16.6°C
Dew Point 55.9°F13.3°C 56.6°F13.7°C 52.5°F11.4°C 54.4°F12.4°C
Winds 4.6 mph NNW7.4 kmh NNW 10.4 mph NNW16.7 kmh NNW - 1.3 mph 2.1 kmh
Wind Gusts 6.9 mph11.1 kmh 15.0 mph24.1 kmh - -
Humidity 90% 90% 53% 78%
Pressure 29.80 in1009.1 mb 29.84 in1010.5 mb 29.78 in1008.5 mb -
Precipitation - 0.05 in1.3 mm - -
Hour Temp Dew Point Humidity Winds Wind Gusts Pressure Precip Precip Rate Daily Precip Total
02:00 PM 58.8°F14.9°C 55.9°F13.3°C 90% 4.6 mph NNW7.4 kmh NNW 6.9 mph11.1 kmh 29.80 in1009.1 mb - 0.03 in0.8 mm 0.05 in1.3 mm
01:30 PM 59.0°F15.0°C 54.8°F12.7°C 86% 8.1 mph NNW13.0 kmh NNW 11.5 mph18.5 kmh 29.80 in1009.1 mb - 0.02 in0.5 mm 0.02 in0.5 mm
01:00 PM 62.4°F16.9°C 54.8°F12.7°C 76% 10.4 mph NNW16.7 kmh NNW 15.0 mph24.1 kmh 29.79 in1008.8 mb - 0.00 in0.0 mm 0.00 in0.0 mm
12:30 PM 69.7°F20.9°C 54.8°F12.7°C 59% 4.6 mph WSW7.4 kmh WSW 4.6 mph7.4 kmh 29.78 in1008.5 mb - 0.00 in0.0 mm 0.00 in0.0 mm
12:00 PM 72.2°F22.3°C 54.1°F12.3°C 53% 2.3 mph ESE3.7 kmh ESE 3.5 mph5.6 kmh 29.79 in1008.8 mb - 0.00 in0.0 mm 0.00 in0.0 mm
11:30 AM 72.2°F22.3°C 55.6°F13.1°C 56% 1.2 mph ENE1.9 kmh ENE 2.3 mph3.7 kmh 29.79 in1008.8 mb - 0.00 in0.0 mm 0.00 in0.0 mm
11:00 AM 71.2°F21.8°C 55.6°F13.1°C 58% 1.2 mph SW1.9 kmh SW 2.3 mph3.7 kmh 29.80 in1009.1 mb - 0.00 in0.0 mm 0.00 in0.0 mm
10:30 AM 68.2°F20.1°C 54.7°F12.6°C 62% 2.3 mph E3.7 kmh E 4.6 mph7.4 kmh 29.81 in1009.5 mb - 0.00 in0.0 mm 0.00 in0.0 mm
10:00 AM 67.2°F19.6°C 55.0°F12.8°C 65% 1.2 mph SW1.9 kmh SW 2.3 mph3.7 kmh 29.81 in1009.5 mb - 0.00 in0.0 mm 0.00 in0.0 mm
09:30 AM 67.7°F19.8°C 55.9°F13.3°C 66% Calm Calm 1.2 mph1.9 kmh 29.81 in1009.5 mb - 0.00 in0.0 mm 0.00 in0.0 mm
09:00 AM 65.0°F18.3°C 55.4°F13.0°C 71% Calm Calm -- 29.81 in1009.5 mb - 0.00 in0.0 mm 0.00 in0.0 mm
08:30 AM 66.0°F18.9°C 56.3°F13.5°C 71% Calm Calm 1.2 mph1.9 kmh 29.82 in1009.8 mb - 0.00 in0.0 mm 0.00 in0.0 mm
08:00 AM 63.3°F17.4°C 55.3°F12.9°C 75% 1.2 mph E1.9 kmh E 5.8 mph9.3 kmh 29.82 in1009.8 mb - 0.00 in0.0 mm 0.00 in0.0 mm
07:30 AM 63.1°F17.3°C 55.8°F13.2°C 77% Calm Calm 1.2 mph1.9 kmh 29.81 in1009.5 mb - 0.00 in0.0 mm 0.00 in0.0 mm
07:00 AM 62.1°F16.7°C 56.6°F13.7°C 82% Calm Calm -- 29.81 in1009.5 mb - 0.00 in0.0 mm 0.00 in0.0 mm
06:30 AM 58.1°F14.5°C 54.8°F12.7°C 89% Calm Calm -- 29.81 in1009.5 mb - 0.00 in0.0 mm 0.00 in0.0 mm
06:00 AM 56.2°F13.4°C 53.0°F11.7°C 89% Calm Calm -- 29.81 in1009.5 mb - 0.00 in0.0 mm 0.00 in0.0 mm
05:30 AM 56.2°F13.4°C 52.7°F11.5°C 88% Calm Calm -- 29.81 in1009.5 mb - 0.00 in0.0 mm 0.00 in0.0 mm
05:00 AM 55.7°F13.2°C 52.5°F11.4°C 89% Calm Calm -- 29.82 in1009.8 mb - 0.00 in0.0 mm 0.00 in0.0 mm
04:30 AM 55.8°F13.2°C 52.6°F11.4°C 89% Calm Calm -- 29.82 in1009.8 mb - 0.00 in0.0 mm 0.00 in0.0 mm
04:00 AM 56.1°F13.4°C 52.9°F11.6°C 89% Calm Calm -- 29.82 in1009.8 mb - 0.00 in0.0 mm 0.00 in0.0 mm
03:30 AM 56.4°F13.6°C 52.9°F11.6°C 88% 1.2 mph SW1.9 kmh SW 1.2 mph1.9 kmh 29.82 in1009.8 mb - 0.00 in0.0 mm 0.00 in0.0 mm
03:00 AM 56.6°F13.7°C 53.1°F11.7°C 88% Calm Calm -- 29.82 in1009.8 mb - 0.00 in0.0 mm 0.00 in0.0 mm
02:30 AM 57.8°F14.3°C 53.6°F12.0°C 86% Calm Calm -- 29.82 in1009.8 mb - 0.00 in0.0 mm 0.00 in0.0 mm
02:00 AM 58.5°F14.7°C 54.0°F12.2°C 85% Calm Calm -- 29.82 in1009.8 mb - 0.00 in0.0 mm 0.00 in0.0 mm
01:30 AM 58.7°F14.8°C 53.9°F12.2°C 84% Calm Calm -- 29.83 in1010.2 mb - 0.00 in0.0 mm 0.00 in0.0 mm
01:00 AM 59.4°F15.2°C 54.2°F12.3°C 83% Calm Calm -- 29.83 in1010.2 mb - 0.00 in0.0 mm 0.00 in0.0 mm
12:30 AM 60.2°F15.7°C 54.3°F12.4°C 81% Calm Calm -- 29.84 in1010.5 mb - 0.00 in0.0 mm 0.00 in0.0 mm
12:00 AM 59.8°F15.4°C 53.7°F12.1°C 80% Calm Calm -- 29.84 in1010.5 mb - 0.00 in0.0 mm 0.00 in0.0 mm